sensor_id;sensor_type;location;lat;lon;timestamp;P1;durP1;ratioP1;P2;durP2;ratioP2
69256;SDS011;56376;53.356;-1.748;2022-09-13T00:00:43;4.13;;;1.83;;
69256;SDS011;56376;53.356;-1.748;2022-09-13T00:03:10;2.75;;;1.48;;
69256;SDS011;56376;53.356;-1.748;2022-09-13T00:05:38;1.42;;;1.25;;
69256;SDS011;56376;53.356;-1.748;2022-09-13T00:08:04;1.90;;;1.25;;
69256;SDS011;56376;53.356;-1.748;2022-09-13T00:10:32;2.42;;;1.35;;
69256;SDS011;56376;53.356;-1.748;2022-09-13T00:12:59;3.35;;;1.70;;
69256;SDS011;56376;53.356;-1.748;2022-09-13T00:15:25;2.28;;;1.50;;
69256;SDS011;56376;53.356;-1.748;2022-09-13T00:17:53;2.72;;;1.20;;
69256;SDS011;56376;53.356;-1.748;2022-09-13T00:20:18;1.38;;;1.13;;
69256;SDS011;56376;53.356;-1.748;2022-09-13T00:22:44;1.90;;;1.30;;
69256;SDS011;56376;53.356;-1.748;2022-09-13T00:25:11;1.38;;;1.27;;
69256;SDS011;56376;53.356;-1.748;2022-09-13T00:27:36;1.48;;;1.38;;
69256;SDS011;56376;53.356;-1.748;2022-09-13T00:30:03;1.88;;;1.50;;
69256;SDS011;56376;53.356;-1.748;2022-09-13T00:32:29;1.95;;;1.63;;
69256;SDS011;56376;53.356;-1.748;2022-09-13T00:34:54;2.88;;;1.80;;
69256;SDS011;56376;53.356;-1.748;2022-09-13T00:37:20;2.28;;;1.80;;
69256;SDS011;56376;53.356;-1.748;2022-09-13T00:39:46;2.90;;;1.65;;
69256;SDS011;56376;53.356;-1.748;2022-09-13T00:42:12;3.05;;;1.50;;
69256;SDS011;56376;53.356;-1.748;2022-09-13T00:52:48;2.88;;;2.15;;
69256;SDS011;56376;53.356;-1.748;2022-09-13T00:55:55;2.38;;;1.92;;
69256;SDS011;56376;53.356;-1.748;2022-09-13T01:00:55;2.25;;;1.80;;
69256;SDS011;56376;53.356;-1.748;2022-09-13T01:03:23;2.15;;;1.55;;
69256;SDS011;56376;53.356;-1.748;2022-09-13T01:05:57;2.88;;;1.65;;
69256;SDS011;56376;53.356;-1.748;2022-09-13T01:08:28;1.95;;;1.40;;
69256;SDS011;56376;53.356;-1.748;2022-09-13T01:10:55;3.17;;;1.60;;
69256;SDS011;56376;53.356;-1.748;2022-09-13T01:13:27;1.75;;;1.50;;
69256;SDS011;56376;53.356;-1.748;2022-09-13T01:15:56;1.98;;;1.40;;
69256;SDS011;56376;53.356;-1.748;2022-09-13T01:18:22;1.50;;;1.30;;
69256;SDS011;56376;53.356;-1.748;2022-09-13T01:37:56;1.25;;;1.15;;
69256;SDS011;56376;53.356;-1.748;2022-09-13T01:40:34;2.60;;;1.67;;
69256;SDS011;56376;53.356;-1.748;2022-09-13T01:43:39;1.85;;;1.42;;
69256;SDS011;56376;53.356;-1.748;2022-09-13T01:46:35;2.00;;;1.30;;
69256;SDS011;56376;53.356;-1.748;2022-09-13T01:49:25;3.97;;;1.58;;
69256;SDS011;56376;53.356;-1.748;2022-09-13T01:52:07;1.55;;;1.30;;
69256;SDS011;56376;53.356;-1.748;2022-09-13T01:55:04;3.10;;;1.60;;
69256;SDS011;56376;53.356;-1.748;2022-09-13T01:58:42;3.15;;;1.55;;
69256;SDS011;56376;53.356;-1.748;2022-09-13T02:00:54;2.33;;;1.23;;
69256;SDS011;56376;53.356;-1.748;2022-09-13T02:03:44;1.30;;;1.20;;
69256;SDS011;56376;53.356;-1.748;2022-09-13T02:06:19;3.53;;;1.85;;
69256;SDS011;56376;53.356;-1.748;2022-09-13T02:08:54;1.77;;;1.33;;
69256;SDS011;56376;53.356;-1.748;2022-09-13T02:11:24;1.60;;;1.30;;
69256;SDS011;56376;53.356;-1.748;2022-09-13T02:16:38;1.30;;;1.20;;
69256;SDS011;56376;53.356;-1.748;2022-09-13T02:19:09;1.73;;;1.38;;
69256;SDS011;56376;53.356;-1.748;2022-09-13T02:21:38;2.50;;;1.48;;
69256;SDS011;56376;53.356;-1.748;2022-09-13T02:24:31;1.55;;;1.45;;
69256;SDS011;56376;53.356;-1.748;2022-09-13T02:27:01;1.45;;;1.35;;
69256;SDS011;56376;53.356;-1.748;2022-09-13T02:29:30;1.50;;;1.40;;
69256;SDS011;56376;53.356;-1.748;2022-09-13T02:32:03;2.17;;;1.83;;
69256;SDS011;56376;53.356;-1.748;2022-09-13T02:34:35;2.08;;;1.40;;
69256;SDS011;56376;53.356;-1.748;2022-09-13T02:37:04;3.13;;;1.63;;
69256;SDS011;56376;53.356;-1.748;2022-09-13T02:39:33;3.00;;;1.65;;
69256;SDS011;56376;53.356;-1.748;2022-09-13T02:43:04;1.75;;;1.60;;
69256;SDS011;56376;53.356;-1.748;2022-09-13T02:45:02;2.28;;;1.40;;
69256;SDS011;56376;53.356;-1.748;2022-09-13T02:53:13;3.22;;;1.65;;
69256;SDS011;56376;53.356;-1.748;2022-09-13T02:58:46;3.03;;;2.22;;
69256;SDS011;56376;53.356;-1.748;2022-09-13T03:01:22;2.28;;;1.70;;
69256;SDS011;56376;53.356;-1.748;2022-09-13T03:03:50;4.82;;;2.15;;
69256;SDS011;56376;53.356;-1.748;2022-09-13T03:06:23;2.72;;;2.35;;
69256;SDS011;56376;53.356;-1.748;2022-09-13T03:08:50;3.83;;;3.13;;
69256;SDS011;56376;53.356;-1.748;2022-09-13T03:11:24;2.33;;;2.08;;
69256;SDS011;56376;53.356;-1.748;2022-09-13T03:16:42;2.47;;;1.95;;
69256;SDS011;56376;53.356;-1.748;2022-09-13T03:19:47;2.67;;;1.80;;
69256;SDS011;56376;53.356;-1.748;2022-09-13T03:30:23;3.83;;;2.10;;
69256;SDS011;56376;53.356;-1.748;2022-09-13T03:35:51;2.60;;;1.98;;
69256;SDS011;56376;53.356;-1.748;2022-09-13T03:38:30;2.83;;;2.22;;
69256;SDS011;56376;53.356;-1.748;2022-09-13T03:41:35;2.38;;;2.17;;
69256;SDS011;56376;53.356;-1.748;2022-09-13T03:46:25;3.65;;;2.97;;
69256;SDS011;56376;53.356;-1.748;2022-09-13T03:49:06;2.50;;;2.20;;
69256;SDS011;56376;53.356;-1.748;2022-09-13T03:51:34;2.85;;;2.00;;
69256;SDS011;56376;53.356;-1.748;2022-09-13T03:54:01;2.92;;;2.47;;
69256;SDS011;56376;53.356;-1.748;2022-09-13T03:56:29;2.13;;;1.88;;
69256;SDS011;56376;53.356;-1.748;2022-09-13T03:58:55;2.72;;;2.20;;
69256;SDS011;56376;53.356;-1.748;2022-09-13T04:01:22;1.77;;;1.65;;
69256;SDS011;56376;53.356;-1.748;2022-09-13T04:03:49;3.10;;;2.28;;
69256;SDS011;56376;53.356;-1.748;2022-09-13T04:06:18;5.00;;;2.58;;
69256;SDS011;56376;53.356;-1.748;2022-09-13T04:08:43;1.95;;;1.80;;
69256;SDS011;56376;53.356;-1.748;2022-09-13T04:11:09;4.82;;;2.40;;
69256;SDS011;56376;53.356;-1.748;2022-09-13T04:13:35;2.45;;;2.25;;
69256;SDS011;56376;53.356;-1.748;2022-09-13T04:16:02;2.72;;;2.40;;
69256;SDS011;56376;53.356;-1.748;2022-09-13T04:18:29;2.78;;;2.25;;
69256;SDS011;56376;53.356;-1.748;2022-09-13T04:20:55;2.88;;;2.28;;
69256;SDS011;56376;53.356;-1.748;2022-09-13T04:23:22;3.40;;;2.55;;
69256;SDS011;56376;53.356;-1.748;2022-09-13T04:25:47;2.55;;;2.00;;
69256;SDS011;56376;53.356;-1.748;2022-09-13T04:28:15;3.10;;;1.90;;
69256;SDS011;56376;53.356;-1.748;2022-09-13T04:30:45;1.90;;;1.80;;
69256;SDS011;56376;53.356;-1.748;2022-09-13T04:33:11;5.25;;;2.10;;
69256;SDS011;56376;53.356;-1.748;2022-09-13T04:35:37;2.30;;;2.00;;
69256;SDS011;56376;53.356;-1.748;2022-09-13T04:38:06;2.22;;;1.77;;
69256;SDS011;56376;53.356;-1.748;2022-09-13T04:40:31;3.00;;;1.92;;
69256;SDS011;56376;53.356;-1.748;2022-09-13T04:42:59;2.22;;;1.80;;
69256;SDS011;56376;53.356;-1.748;2022-09-13T04:45:24;2.55;;;2.22;;
69256;SDS011;56376;53.356;-1.748;2022-09-13T04:47:53;2.25;;;2.05;;
69256;SDS011;56376;53.356;-1.748;2022-09-13T04:50:20;2.25;;;2.00;;
69256;SDS011;56376;53.356;-1.748;2022-09-13T04:52:47;2.08;;;1.80;;
69256;SDS011;56376;53.356;-1.748;2022-09-13T04:55:13;3.65;;;2.35;;
69256;SDS011;56376;53.356;-1.748;2022-09-13T04:57:38;2.72;;;2.20;;
69256;SDS011;56376;53.356;-1.748;2022-09-13T05:00:07;2.05;;;1.85;;
69256;SDS011;56376;53.356;-1.748;2022-09-13T05:02:33;2.65;;;2.20;;
69256;SDS011;56376;53.356;-1.748;2022-09-13T05:04:59;2.92;;;2.63;;
69256;SDS011;56376;53.356;-1.748;2022-09-13T05:07:24;2.67;;;2.30;;
69256;SDS011;56376;53.356;-1.748;2022-09-13T05:09:50;2.58;;;2.10;;
69256;SDS011;56376;53.356;-1.748;2022-09-13T05:12:15;2.78;;;2.30;;
69256;SDS011;56376;53.356;-1.748;2022-09-13T05:14:40;2.33;;;2.13;;
69256;SDS011;56376;53.356;-1.748;2022-09-13T05:17:06;2.17;;;1.90;;
69256;SDS011;56376;53.356;-1.748;2022-09-13T05:19:32;1.98;;;1.83;;
69256;SDS011;56376;53.356;-1.748;2022-09-13T05:21:58;2.20;;;2.00;;
69256;SDS011;56376;53.356;-1.748;2022-09-13T05:24:24;2.05;;;1.80;;
69256;SDS011;56376;53.356;-1.748;2022-09-13T05:26:49;2.30;;;2.10;;
69256;SDS011;56376;53.356;-1.748;2022-09-13T05:29:15;2.25;;;2.05;;
69256;SDS011;56376;53.356;-1.748;2022-09-13T05:31:41;1.77;;;1.67;;
69256;SDS011;56376;53.356;-1.748;2022-09-13T05:34:11;1.73;;;1.63;;
69256;SDS011;56376;53.356;-1.748;2022-09-13T05:36:38;1.95;;;1.70;;
69256;SDS011;56376;53.356;-1.748;2022-09-13T05:39:04;2.50;;;2.10;;
69256;SDS011;56376;53.356;-1.748;2022-09-13T05:41:30;2.13;;;1.92;;
69256;SDS011;56376;53.356;-1.748;2022-09-13T05:43:56;2.25;;;2.05;;
69256;SDS011;56376;53.356;-1.748;2022-09-13T05:46:22;2.72;;;2.50;;
69256;SDS011;56376;53.356;-1.748;2022-09-13T05:48:47;2.00;;;1.80;;
69256;SDS011;56376;53.356;-1.748;2022-09-13T05:51:22;2.15;;;1.90;;
69256;SDS011;56376;53.356;-1.748;2022-09-13T05:53:49;2.30;;;2.10;;
69256;SDS011;56376;53.356;-1.748;2022-09-13T05:56:16;2.70;;;2.30;;
69256;SDS011;56376;53.356;-1.748;2022-09-13T05:58:45;2.75;;;2.22;;
69256;SDS011;56376;53.356;-1.748;2022-09-13T06:01:12;2.70;;;2.35;;
69256;SDS011;56376;53.356;-1.748;2022-09-13T06:03:39;3.38;;;2.20;;
69256;SDS011;56376;53.356;-1.748;2022-09-13T06:06:05;4.20;;;2.53;;
69256;SDS011;56376;53.356;-1.748;2022-09-13T06:08:32;3.17;;;2.08;;
69256;SDS011;56376;53.356;-1.748;2022-09-13T06:10:59;2.83;;;2.20;;
69256;SDS011;56376;53.356;-1.748;2022-09-13T06:13:27;3.88;;;2.65;;
69256;SDS011;56376;53.356;-1.748;2022-09-13T06:15:53;2.42;;;2.15;;
69256;SDS011;56376;53.356;-1.748;2022-09-13T06:18:20;2.75;;;2.47;;
69256;SDS011;56376;53.356;-1.748;2022-09-13T06:20:46;2.50;;;2.28;;
69256;SDS011;56376;53.356;-1.748;2022-09-13T06:23:12;2.40;;;2.20;;
69256;SDS011;56376;53.356;-1.748;2022-09-13T06:25:38;2.58;;;2.38;;
69256;SDS011;56376;53.356;-1.748;2022-09-13T06:28:04;2.22;;;2.03;;
69256;SDS011;56376;53.356;-1.748;2022-09-13T06:30:30;2.65;;;2.45;;
69256;SDS011;56376;53.356;-1.748;2022-09-13T06:32:55;2.67;;;2.35;;
69256;SDS011;56376;53.356;-1.748;2022-09-13T06:35:24;2.40;;;2.20;;
69256;SDS011;56376;53.356;-1.748;2022-09-13T06:37:49;2.72;;;2.08;;
69256;SDS011;56376;53.356;-1.748;2022-09-13T06:40:15;2.03;;;1.83;;
69256;SDS011;56376;53.356;-1.748;2022-09-13T06:42:41;2.65;;;2.40;;
69256;SDS011;56376;53.356;-1.748;2022-09-13T06:45:06;2.13;;;1.92;;
69256;SDS011;56376;53.356;-1.748;2022-09-13T06:47:32;1.92;;;1.75;;
69256;SDS011;56376;53.356;-1.748;2022-09-13T06:49:58;2.05;;;1.83;;
69256;SDS011;56376;53.356;-1.748;2022-09-13T06:52:24;2.35;;;2.15;;
69256;SDS011;56376;53.356;-1.748;2022-09-13T06:54:50;1.95;;;1.75;;
69256;SDS011;56376;53.356;-1.748;2022-09-13T06:57:16;1.70;;;1.60;;
69256;SDS011;56376;53.356;-1.748;2022-09-13T06:59:41;1.63;;;1.52;;
69256;SDS011;56376;53.356;-1.748;2022-09-13T07:02:10;2.00;;;1.90;;
69256;SDS011;56376;53.356;-1.748;2022-09-13T07:04:36;1.70;;;1.60;;
69256;SDS011;56376;53.356;-1.748;2022-09-13T07:07:01;1.60;;;1.50;;
69256;SDS011;56376;53.356;-1.748;2022-09-13T07:09:29;1.73;;;1.63;;
69256;SDS011;56376;53.356;-1.748;2022-09-13T07:11:55;1.75;;;1.65;;
69256;SDS011;56376;53.356;-1.748;2022-09-13T07:14:22;2.20;;;1.80;;
69256;SDS011;56376;53.356;-1.748;2022-09-13T07:16:49;1.85;;;1.67;;
69256;SDS011;56376;53.356;-1.748;2022-09-13T07:19:19;1.80;;;1.60;;
69256;SDS011;56376;53.356;-1.748;2022-09-13T07:21:48;1.80;;;1.70;;
69256;SDS011;56376;53.356;-1.748;2022-09-13T07:24:15;1.90;;;1.63;;
69256;SDS011;56376;53.356;-1.748;2022-09-13T07:26:41;1.90;;;1.70;;
69256;SDS011;56376;53.356;-1.748;2022-09-13T07:29:07;2.38;;;1.52;;
69256;SDS011;56376;53.356;-1.748;2022-09-13T07:31:39;2.05;;;1.83;;
69256;SDS011;56376;53.356;-1.748;2022-09-13T07:34:06;1.60;;;1.50;;
69256;SDS011;56376;53.356;-1.748;2022-09-13T07:36:36;1.70;;;1.60;;
69256;SDS011;56376;53.356;-1.748;2022-09-13T07:39:02;1.98;;;1.80;;
69256;SDS011;56376;53.356;-1.748;2022-09-13T07:41:28;1.80;;;1.70;;
69256;SDS011;56376;53.356;-1.748;2022-09-13T07:43:56;1.67;;;1.58;;
69256;SDS011;56376;53.356;-1.748;2022-09-13T07:46:25;2.00;;;1.80;;
69256;SDS011;56376;53.356;-1.748;2022-09-13T07:48:52;2.22;;;2.03;;
69256;SDS011;56376;53.356;-1.748;2022-09-13T07:51:20;2.20;;;2.00;;
69256;SDS011;56376;53.356;-1.748;2022-09-13T07:53:50;2.60;;;2.13;;
69256;SDS011;56376;53.356;-1.748;2022-09-13T07:56:19;2.72;;;2.22;;
69256;SDS011;56376;53.356;-1.748;2022-09-13T07:58:48;2.55;;;2.17;;
69256;SDS011;56376;53.356;-1.748;2022-09-13T08:01:15;3.15;;;2.85;;
69256;SDS011;56376;53.356;-1.748;2022-09-13T08:03:43;2.67;;;2.42;;
69256;SDS011;56376;53.356;-1.748;2022-09-13T08:06:09;4.93;;;2.50;;
69256;SDS011;56376;53.356;-1.748;2022-09-13T08:08:35;2.20;;;1.98;;
69256;SDS011;56376;53.356;-1.748;2022-09-13T08:11:02;2.35;;;1.90;;
69256;SDS011;56376;53.356;-1.748;2022-09-13T08:13:29;4.65;;;2.25;;
69256;SDS011;56376;53.356;-1.748;2022-09-13T08:16:04;3.63;;;2.25;;
69256;SDS011;56376;53.356;-1.748;2022-09-13T08:18:30;3.83;;;2.50;;
69256;SDS011;56376;53.356;-1.748;2022-09-13T08:20:56;3.47;;;2.42;;
69256;SDS011;56376;53.356;-1.748;2022-09-13T08:23:22;2.63;;;1.98;;
69256;SDS011;56376;53.356;-1.748;2022-09-13T08:25:48;2.33;;;1.95;;
69256;SDS011;56376;53.356;-1.748;2022-09-13T08:28:14;2.65;;;2.35;;
69256;SDS011;56376;53.356;-1.748;2022-09-13T08:30:41;4.50;;;1.83;;
69256;SDS011;56376;53.356;-1.748;2022-09-13T08:33:07;2.88;;;2.17;;
69256;SDS011;56376;53.356;-1.748;2022-09-13T08:35:34;2.80;;;1.70;;
69256;SDS011;56376;53.356;-1.748;2022-09-13T08:38:00;1.80;;;1.70;;
69256;SDS011;56376;53.356;-1.748;2022-09-13T08:40:27;3.13;;;1.80;;
69256;SDS011;56376;53.356;-1.748;2022-09-13T08:45:30;3.80;;;1.80;;
69256;SDS011;56376;53.356;-1.748;2022-09-13T08:47:57;7.50;;;2.22;;
69256;SDS011;56376;53.356;-1.748;2022-09-13T09:04:04;7.00;;;2.65;;
69256;SDS011;56376;53.356;-1.748;2022-09-13T09:12:26;5.68;;;2.47;;
69256;SDS011;56376;53.356;-1.748;2022-09-13T09:14:58;2.42;;;1.90;;
69256;SDS011;56376;53.356;-1.748;2022-09-13T09:17:49;2.40;;;1.80;;
69256;SDS011;56376;53.356;-1.748;2022-09-13T09:20:32;4.03;;;1.88;;
69256;SDS011;56376;53.356;-1.748;2022-09-13T09:23:07;4.43;;;1.90;;
69256;SDS011;56376;53.356;-1.748;2022-09-13T09:25:40;5.18;;;2.25;;
69256;SDS011;56376;53.356;-1.748;2022-09-13T09:28:10;4.90;;;2.20;;
69256;SDS011;56376;53.356;-1.748;2022-09-13T09:30:50;5.88;;;2.35;;
69256;SDS011;56376;53.356;-1.748;2022-09-13T09:36:36;2.70;;;1.73;;
69256;SDS011;56376;53.356;-1.748;2022-09-13T09:39:06;2.88;;;1.75;;
69256;SDS011;56376;53.356;-1.748;2022-09-13T09:41:35;4.22;;;2.20;;
69256;SDS011;56376;53.356;-1.748;2022-09-13T09:46:54;3.05;;;1.80;;
69256;SDS011;56376;53.356;-1.748;2022-09-13T09:49:32;5.93;;;1.90;;
69256;SDS011;56376;53.356;-1.748;2022-09-13T09:53:11;2.30;;;1.33;;
69256;SDS011;56376;53.356;-1.748;2022-09-13T09:55:26;6.47;;;2.03;;
69256;SDS011;56376;53.356;-1.748;2022-09-13T09:58:10;5.15;;;2.22;;
69256;SDS011;56376;53.356;-1.748;2022-09-13T10:00:48;3.55;;;1.40;;
69256;SDS011;56376;53.356;-1.748;2022-09-13T10:03:20;3.45;;;1.42;;
69256;SDS011;56376;53.356;-1.748;2022-09-13T10:06:02;1.80;;;1.23;;
69256;SDS011;56376;53.356;-1.748;2022-09-13T10:08:41;3.60;;;1.20;;
69256;SDS011;56376;53.356;-1.748;2022-09-13T10:11:11;1.60;;;1.20;;
69256;SDS011;56376;53.356;-1.748;2022-09-13T10:13:37;2.03;;;1.58;;
69256;SDS011;56376;53.356;-1.748;2022-09-13T10:16:03;2.13;;;1.05;;
69256;SDS011;56376;53.356;-1.748;2022-09-13T10:18:46;3.30;;;1.02;;
69256;SDS011;56376;53.356;-1.748;2022-09-13T10:21:23;1.92;;;0.98;;
69256;SDS011;56376;53.356;-1.748;2022-09-13T10:37:16;1.15;;;1.02;;
69256;SDS011;56376;53.356;-1.748;2022-09-13T10:42:15;1.83;;;0.85;;
69256;SDS011;56376;53.356;-1.748;2022-09-13T10:44:52;1.35;;;1.05;;
69256;SDS011;56376;53.356;-1.748;2022-09-13T10:47:26;1.17;;;0.80;;
69256;SDS011;56376;53.356;-1.748;2022-09-13T10:50:20;1.45;;;1.00;;
69256;SDS011;56376;53.356;-1.748;2022-09-13T10:52:49;2.75;;;0.93;;
69256;SDS011;56376;53.356;-1.748;2022-09-13T10:57:45;1.17;;;0.98;;
69256;SDS011;56376;53.356;-1.748;2022-09-13T11:00:38;2.90;;;1.05;;
69256;SDS011;56376;53.356;-1.748;2022-09-13T11:06:15;2.65;;;1.20;;
69256;SDS011;56376;53.356;-1.748;2022-09-13T11:11:44;1.50;;;0.80;;
69256;SDS011;56376;53.356;-1.748;2022-09-13T11:14:40;2.33;;;1.08;;
69256;SDS011;56376;53.356;-1.748;2022-09-13T11:30:10;1.13;;;0.93;;
69256;SDS011;56376;53.356;-1.748;2022-09-13T11:32:41;1.00;;;0.90;;
69256;SDS011;56376;53.356;-1.748;2022-09-13T11:40:58;1.02;;;0.82;;
69256;SDS011;56376;53.356;-1.748;2022-09-13T11:48:45;1.30;;;0.88;;
69256;SDS011;56376;53.356;-1.748;2022-09-13T11:54:10;1.60;;;0.85;;
69256;SDS011;56376;53.356;-1.748;2022-09-13T11:56:43;1.40;;;0.80;;
69256;SDS011;56376;53.356;-1.748;2022-09-13T12:01:54;2.65;;;0.95;;
69256;SDS011;56376;53.356;-1.748;2022-09-13T12:04:38;1.73;;;0.93;;
69256;SDS011;56376;53.356;-1.748;2022-09-13T12:07:09;1.57;;;0.80;;
69256;SDS011;56376;53.356;-1.748;2022-09-13T12:12:12;1.40;;;0.85;;
69256;SDS011;56376;53.356;-1.748;2022-09-13T12:14:46;0.90;;;0.73;;
69256;SDS011;56376;53.356;-1.748;2022-09-13T12:17:24;2.33;;;0.98;;
69256;SDS011;56376;53.356;-1.748;2022-09-13T12:19:53;1.13;;;0.82;;
69256;SDS011;56376;53.356;-1.748;2022-09-13T12:22:23;1.60;;;0.70;;
69256;SDS011;56376;53.356;-1.748;2022-09-13T12:24:55;1.98;;;1.02;;
69256;SDS011;56376;53.356;-1.748;2022-09-13T12:27:30;1.23;;;1.00;;
69256;SDS011;56376;53.356;-1.748;2022-09-13T12:32:38;1.92;;;0.88;;
69256;SDS011;56376;53.356;-1.748;2022-09-13T12:35:06;1.70;;;0.90;;
69256;SDS011;56376;53.356;-1.748;2022-09-13T12:37:44;1.58;;;1.00;;
69256;SDS011;56376;53.356;-1.748;2022-09-13T12:59:18;1.65;;;0.65;;
69256;SDS011;56376;53.356;-1.748;2022-09-13T13:01:53;0.95;;;0.60;;
69256;SDS011;56376;53.356;-1.748;2022-09-13T13:04:24;1.58;;;0.90;;
69256;SDS011;56376;53.356;-1.748;2022-09-13T13:06:56;1.38;;;0.80;;
69256;SDS011;56376;53.356;-1.748;2022-09-13T13:11:59;1.52;;;0.65;;
69256;SDS011;56376;53.356;-1.748;2022-09-13T13:16:54;1.25;;;0.82;;
69256;SDS011;56376;53.356;-1.748;2022-09-13T13:19:39;1.90;;;0.73;;
69256;SDS011;56376;53.356;-1.748;2022-09-13T13:28:02;0.60;;;0.60;;
69256;SDS011;56376;53.356;-1.748;2022-09-13T13:33:23;1.38;;;0.82;;
69256;SDS011;56376;53.356;-1.748;2022-09-13T13:35:52;3.00;;;1.20;;
69256;SDS011;56376;53.356;-1.748;2022-09-13T13:40:52;0.68;;;0.60;;
69256;SDS011;56376;53.356;-1.748;2022-09-13T13:43:31;0.95;;;0.65;;
69256;SDS011;56376;53.356;-1.748;2022-09-13T13:46:44;2.42;;;0.80;;
69256;SDS011;56376;53.356;-1.748;2022-09-13T13:48:49;3.05;;;0.73;;
69256;SDS011;56376;53.356;-1.748;2022-09-13T13:51:19;2.05;;;0.75;;
69256;SDS011;56376;53.356;-1.748;2022-09-13T13:53:50;1.63;;;0.85;;
69256;SDS011;56376;53.356;-1.748;2022-09-13T14:01:41;1.33;;;0.93;;
69256;SDS011;56376;53.356;-1.748;2022-09-13T14:07:18;2.10;;;0.70;;
69256;SDS011;56376;53.356;-1.748;2022-09-13T14:10:22;0.73;;;0.55;;
69256;SDS011;56376;53.356;-1.748;2022-09-13T14:21:24;1.95;;;0.80;;
69256;SDS011;56376;53.356;-1.748;2022-09-13T14:23:54;1.48;;;1.00;;
69256;SDS011;56376;53.356;-1.748;2022-09-13T14:26:43;1.73;;;0.90;;
69256;SDS011;56376;53.356;-1.748;2022-09-13T14:29:15;0.82;;;0.70;;
69256;SDS011;56376;53.356;-1.748;2022-09-13T14:31:46;1.80;;;0.90;;
69256;SDS011;56376;53.356;-1.748;2022-09-13T14:34:20;1.48;;;0.88;;
69256;SDS011;56376;53.356;-1.748;2022-09-13T14:36:57;1.13;;;0.55;;
69256;SDS011;56376;53.356;-1.748;2022-09-13T14:39:25;2.15;;;0.80;;
69256;SDS011;56376;53.356;-1.748;2022-09-13T14:41:58;1.35;;;0.70;;
69256;SDS011;56376;53.356;-1.748;2022-09-13T14:44:35;1.23;;;0.73;;
69256;SDS011;56376;53.356;-1.748;2022-09-13T14:47:03;1.77;;;0.73;;
69256;SDS011;56376;53.356;-1.748;2022-09-13T14:49:34;1.65;;;0.80;;
69256;SDS011;56376;53.356;-1.748;2022-09-13T14:52:07;1.10;;;0.67;;
69256;SDS011;56376;53.356;-1.748;2022-09-13T14:54:48;1.38;;;0.70;;
69256;SDS011;56376;53.356;-1.748;2022-09-13T14:57:22;1.48;;;0.82;;
69256;SDS011;56376;53.356;-1.748;2022-09-13T14:59:53;0.80;;;0.70;;
69256;SDS011;56376;53.356;-1.748;2022-09-13T15:02:25;1.45;;;0.82;;
69256;SDS011;56376;53.356;-1.748;2022-09-13T15:04:54;1.33;;;0.90;;
69256;SDS011;56376;53.356;-1.748;2022-09-13T15:09:56;1.03;;;0.70;;
69256;SDS011;56376;53.356;-1.748;2022-09-13T15:12:29;0.60;;;0.57;;
69256;SDS011;56376;53.356;-1.748;2022-09-13T15:17:51;1.52;;;0.85;;
69256;SDS011;56376;53.356;-1.748;2022-09-13T15:20:22;1.50;;;0.90;;
69256;SDS011;56376;53.356;-1.748;2022-09-13T15:22:49;1.02;;;0.60;;
69256;SDS011;56376;53.356;-1.748;2022-09-13T15:25:18;1.42;;;0.80;;
69256;SDS011;56376;53.356;-1.748;2022-09-13T15:27:50;1.88;;;1.00;;
69256;SDS011;56376;53.356;-1.748;2022-09-13T15:30:36;1.23;;;0.85;;
69256;SDS011;56376;53.356;-1.748;2022-09-13T15:33:13;1.27;;;1.00;;
69256;SDS011;56376;53.356;-1.748;2022-09-13T15:35:44;1.42;;;1.05;;
69256;SDS011;56376;53.356;-1.748;2022-09-13T15:43:35;2.08;;;1.20;;
69256;SDS011;56376;53.356;-1.748;2022-09-13T15:46:01;2.30;;;1.02;;
69256;SDS011;56376;53.356;-1.748;2022-09-13T15:48:35;1.63;;;1.00;;
69256;SDS011;56376;53.356;-1.748;2022-09-13T15:51:08;1.83;;;1.00;;
69256;SDS011;56376;53.356;-1.748;2022-09-13T15:53:36;1.85;;;1.02;;
69256;SDS011;56376;53.356;-1.748;2022-09-13T15:56:03;1.70;;;0.60;;
69256;SDS011;56376;53.356;-1.748;2022-09-13T15:58:30;2.47;;;0.90;;
69256;SDS011;56376;53.356;-1.748;2022-09-13T16:00:56;4.18;;;2.42;;
69256;SDS011;56376;53.356;-1.748;2022-09-13T16:03:22;6.72;;;4.80;;
69256;SDS011;56376;53.356;-1.748;2022-09-13T16:05:49;6.43;;;4.57;;
69256;SDS011;56376;53.356;-1.748;2022-09-13T16:08:15;5.47;;;4.50;;
69256;SDS011;56376;53.356;-1.748;2022-09-13T16:10:40;6.43;;;4.25;;
69256;SDS011;56376;53.356;-1.748;2022-09-13T16:13:06;7.63;;;4.65;;
69256;SDS011;56376;53.356;-1.748;2022-09-13T16:15:31;6.00;;;3.88;;
69256;SDS011;56376;53.356;-1.748;2022-09-13T16:17:57;4.25;;;3.20;;
69256;SDS011;56376;53.356;-1.748;2022-09-13T16:20:22;5.65;;;3.67;;
69256;SDS011;56376;53.356;-1.748;2022-09-13T16:22:47;5.53;;;3.95;;
69256;SDS011;56376;53.356;-1.748;2022-09-13T16:25:13;6.35;;;4.35;;
69256;SDS011;56376;53.356;-1.748;2022-09-13T16:27:40;5.28;;;3.53;;
69256;SDS011;56376;53.356;-1.748;2022-09-13T16:30:08;3.72;;;2.95;;
69256;SDS011;56376;53.356;-1.748;2022-09-13T16:32:36;3.53;;;2.25;;
69256;SDS011;56376;53.356;-1.748;2022-09-13T16:35:01;3.95;;;2.47;;
69256;SDS011;56376;53.356;-1.748;2022-09-13T16:37:26;2.58;;;2.15;;
69256;SDS011;56376;53.356;-1.748;2022-09-13T16:39:54;2.65;;;1.55;;
69256;SDS011;56376;53.356;-1.748;2022-09-13T16:42:21;2.10;;;1.60;;
69256;SDS011;56376;53.356;-1.748;2022-09-13T16:44:46;2.35;;;1.45;;
69256;SDS011;56376;53.356;-1.748;2022-09-13T16:47:12;1.52;;;1.20;;
69256;SDS011;56376;53.356;-1.748;2022-09-13T16:49:37;2.88;;;1.45;;
69256;SDS011;56376;53.356;-1.748;2022-09-13T16:52:03;2.05;;;1.15;;
69256;SDS011;56376;53.356;-1.748;2022-09-13T16:54:28;1.52;;;1.00;;
69256;SDS011;56376;53.356;-1.748;2022-09-13T16:56:55;1.25;;;1.10;;
69256;SDS011;56376;53.356;-1.748;2022-09-13T16:59:22;2.60;;;1.30;;
69256;SDS011;56376;53.356;-1.748;2022-09-13T17:01:47;1.10;;;0.95;;
69256;SDS011;56376;53.356;-1.748;2022-09-13T17:04:12;1.27;;;0.98;;
69256;SDS011;56376;53.356;-1.748;2022-09-13T17:06:38;1.73;;;0.95;;
69256;SDS011;56376;53.356;-1.748;2022-09-13T17:09:04;1.67;;;1.20;;
69256;SDS011;56376;53.356;-1.748;2022-09-13T17:11:32;1.83;;;1.02;;
69256;SDS011;56376;53.356;-1.748;2022-09-13T17:14:00;1.30;;;1.15;;
69256;SDS011;56376;53.356;-1.748;2022-09-13T17:19:07;2.28;;;1.60;;
69256;SDS011;56376;53.356;-1.748;2022-09-13T17:21:36;2.05;;;1.30;;
69256;SDS011;56376;53.356;-1.748;2022-09-13T17:24:02;1.52;;;1.08;;
69256;SDS011;56376;53.356;-1.748;2022-09-13T17:26:29;2.58;;;1.10;;
69256;SDS011;56376;53.356;-1.748;2022-09-13T17:28:54;1.92;;;1.30;;
69256;SDS011;56376;53.356;-1.748;2022-09-13T17:31:20;2.13;;;1.42;;
69256;SDS011;56376;53.356;-1.748;2022-09-13T17:33:45;1.73;;;1.00;;
69256;SDS011;56376;53.356;-1.748;2022-09-13T17:36:11;2.65;;;1.10;;
69256;SDS011;56376;53.356;-1.748;2022-09-13T17:38:38;1.42;;;0.98;;
69256;SDS011;56376;53.356;-1.748;2022-09-13T17:41:05;1.75;;;1.45;;
69256;SDS011;56376;53.356;-1.748;2022-09-13T17:43:34;2.30;;;1.20;;
69256;SDS011;56376;53.356;-1.748;2022-09-13T17:46:04;2.70;;;1.30;;
69256;SDS011;56376;53.356;-1.748;2022-09-13T17:48:30;2.50;;;1.30;;
69256;SDS011;56376;53.356;-1.748;2022-09-13T17:51:00;1.92;;;1.33;;
69256;SDS011;56376;53.356;-1.748;2022-09-13T17:53:29;2.33;;;1.30;;
69256;SDS011;56376;53.356;-1.748;2022-09-13T17:55:55;1.73;;;1.05;;
69256;SDS011;56376;53.356;-1.748;2022-09-13T17:58:22;2.40;;;1.38;;
69256;SDS011;56376;53.356;-1.748;2022-09-13T18:00:49;2.35;;;1.40;;
69256;SDS011;56376;53.356;-1.748;2022-09-13T18:03:15;2.95;;;1.77;;
69256;SDS011;56376;53.356;-1.748;2022-09-13T18:05:40;2.13;;;1.17;;
69256;SDS011;56376;53.356;-1.748;2022-09-13T18:08:06;1.95;;;1.30;;
69256;SDS011;56376;53.356;-1.748;2022-09-13T18:10:31;1.73;;;1.40;;
69256;SDS011;56376;53.356;-1.748;2022-09-13T18:12:57;2.10;;;1.40;;
69256;SDS011;56376;53.356;-1.748;2022-09-13T18:15:23;1.95;;;1.35;;
69256;SDS011;56376;53.356;-1.748;2022-09-13T18:17:48;2.08;;;1.20;;
69256;SDS011;56376;53.356;-1.748;2022-09-13T18:20:13;1.33;;;1.10;;